sensor_id;sensor_type;location;lat;lon;timestamp;pressure;altitude;pressure_sealevel;temperature;humidity
63096;BME280;49184;55.596;37.770;2022-11-20T00:01:16;99671.00;;;0.97;71.02
63096;BME280;49184;55.596;37.770;2022-11-20T00:03:42;99607.66;;;0.49;71.24
63096;BME280;49184;55.596;37.770;2022-11-20T00:06:11;99606.59;;;0.50;71.29
63096;BME280;49184;55.596;37.770;2022-11-20T00:08:38;99636.34;;;0.72;71.33
63096;BME280;49184;55.596;37.770;2022-11-20T00:11:13;99656.44;;;0.81;71.38
63096;BME280;49184;55.596;37.770;2022-11-20T00:13:39;99665.09;;;0.83;71.60
63096;BME280;49184;55.596;37.770;2022-11-20T00:16:07;99570.25;;;0.18;71.33
63096;BME280;49184;55.596;37.770;2022-11-20T00:18:33;99658.34;;;0.68;71.70
63096;BME280;49184;55.596;37.770;2022-11-20T00:21:04;99583.22;;;0.10;71.83
63096;BME280;49184;55.596;37.770;2022-11-20T00:23:31;99597.94;;;0.19;72.28
63096;BME280;49184;55.596;37.770;2022-11-20T00:26:08;99665.63;;;0.56;72.43
63096;BME280;49184;55.596;37.770;2022-11-20T00:28:34;99570.19;;;-0.10;72.39
63096;BME280;49184;55.596;37.770;2022-11-20T00:31:07;99586.44;;;0.07;72.43
63096;BME280;49184;55.596;37.770;2022-11-20T00:33:34;99655.00;;;0.61;72.23
63096;BME280;49184;55.596;37.770;2022-11-20T00:36:06;99630.94;;;0.43;72.13
63096;BME280;49184;55.596;37.770;2022-11-20T00:38:33;99658.31;;;0.52;72.33
63096;BME280;49184;55.596;37.770;2022-11-20T00:41:04;99616.88;;;0.24;72.31
63096;BME280;49184;55.596;37.770;2022-11-20T00:43:30;99645.72;;;0.29;72.36
63096;BME280;49184;55.596;37.770;2022-11-20T00:46:01;99577.44;;;-0.11;72.06
63096;BME280;49184;55.596;37.770;2022-11-20T00:48:27;99566.81;;;-0.17;72.37
63096;BME280;49184;55.596;37.770;2022-11-20T00:50:54;99659.69;;;0.54;72.28
63096;BME280;49184;55.596;37.770;2022-11-20T00:53:20;99595.25;;;0.19;71.88
63096;BME280;49184;55.596;37.770;2022-11-20T00:55:58;99653.72;;;0.52;71.65
63096;BME280;49184;55.596;37.770;2022-11-20T00:58:28;99601.63;;;-0.11;71.84
63096;BME280;49184;55.596;37.770;2022-11-20T01:01:00;99669.47;;;0.32;72.09
63096;BME280;49184;55.596;37.770;2022-11-20T01:03:31;99588.91;;;-0.15;71.11
63096;BME280;49184;55.596;37.770;2022-11-20T01:06:07;99627.03;;;0.22;70.26
63096;BME280;49184;55.596;37.770;2022-11-20T01:08:34;99626.69;;;0.18;70.34
63096;BME280;49184;55.596;37.770;2022-11-20T01:11:06;99649.63;;;0.50;69.82
63096;BME280;49184;55.596;37.770;2022-11-20T01:13:33;99599.81;;;0.18;69.00
63096;BME280;49184;55.596;37.770;2022-11-20T01:16:08;99545.56;;;-0.19;69.15
63096;BME280;49184;55.596;37.770;2022-11-20T01:18:35;99660.19;;;0.51;69.19
63096;BME280;49184;55.596;37.770;2022-11-20T01:21:04;99558.88;;;-0.24;69.42
63096;BME280;49184;55.596;37.770;2022-11-20T01:23:35;99660.56;;;0.31;70.10
63096;BME280;49184;55.596;37.770;2022-11-20T01:26:07;99550.53;;;-0.51;70.32
63096;BME280;49184;55.596;37.770;2022-11-20T01:28:34;99626.03;;;-0.01;70.60
63096;BME280;49184;55.596;37.770;2022-11-20T01:31:01;99619.25;;;0.09;69.94
63096;BME280;49184;55.596;37.770;2022-11-20T01:33:27;99652.91;;;0.11;69.90
63096;BME280;49184;55.596;37.770;2022-11-20T01:36:04;99604.22;;;-0.16;70.22
63096;BME280;49184;55.596;37.770;2022-11-20T01:38:30;99628.50;;;-0.11;70.77
63096;BME280;49184;55.596;37.770;2022-11-20T01:40:56;99583.78;;;-0.40;70.43
63096;BME280;49184;55.596;37.770;2022-11-20T01:43:23;99591.75;;;-0.45;70.34
63096;BME280;49184;55.596;37.770;2022-11-20T01:46:18;99671.25;;;0.14;70.49
63096;BME280;49184;55.596;37.770;2022-11-20T01:48:49;99685.03;;;0.18;70.39
63096;BME280;49184;55.596;37.770;2022-11-20T01:51:39;99595.22;;;-0.33;69.95
63096;BME280;49184;55.596;37.770;2022-11-20T01:54:14;99611.81;;;-0.25;70.24
63096;BME280;49184;55.596;37.770;2022-11-20T01:56:44;99594.44;;;-0.45;70.04
63096;BME280;49184;55.596;37.770;2022-11-20T01:59:12;99688.66;;;0.23;69.85
63096;BME280;49184;55.596;37.770;2022-11-20T02:01:40;99633.53;;;-0.26;69.68
63096;BME280;49184;55.596;37.770;2022-11-20T02:04:08;99636.34;;;-0.33;70.08
63096;BME280;49184;55.596;37.770;2022-11-20T02:06:50;99698.13;;;0.14;70.53
63096;BME280;49184;55.596;37.770;2022-11-20T02:09:17;99680.03;;;-0.02;70.28
63096;BME280;49184;55.596;37.770;2022-11-20T02:11:43;99666.47;;;-0.07;69.88
63096;BME280;49184;55.596;37.770;2022-11-20T02:14:10;99620.94;;;-0.49;70.13
63096;BME280;49184;55.596;37.770;2022-11-20T02:16:41;99675.84;;;-0.10;70.25
63096;BME280;49184;55.596;37.770;2022-11-20T02:19:17;99619.97;;;-0.55;70.15
63096;BME280;49184;55.596;37.770;2022-11-20T02:24:21;99630.00;;;-0.50;70.26
63096;BME280;49184;55.596;37.770;2022-11-20T02:27:00;99697.88;;;-0.08;70.36
63096;BME280;49184;55.596;37.770;2022-11-20T02:29:33;99662.47;;;-0.40;70.09
63096;BME280;49184;55.596;37.770;2022-11-20T02:32:02;99612.75;;;-0.54;69.97
63096;BME280;49184;55.596;37.770;2022-11-20T02:34:28;99604.13;;;-0.56;69.59
63096;BME280;49184;55.596;37.770;2022-11-20T02:36:56;99637.16;;;-0.44;69.37
63096;BME280;49184;55.596;37.770;2022-11-20T02:39:25;99687.28;;;-0.03;69.35
63096;BME280;49184;55.596;37.770;2022-11-20T02:41:53;99668.09;;;-0.18;69.17
63096;BME280;49184;55.596;37.770;2022-11-20T02:44:20;99726.50;;;0.22;69.27
63096;BME280;49184;55.596;37.770;2022-11-20T02:46:46;99691.25;;;-0.05;69.24
63096;BME280;49184;55.596;37.770;2022-11-20T02:49:12;99684.00;;;-0.05;69.21
63096;BME280;49184;55.596;37.770;2022-11-20T02:51:38;99665.19;;;-0.28;69.53
63096;BME280;49184;55.596;37.770;2022-11-20T02:54:04;99655.97;;;-0.32;69.35
63096;BME280;49184;55.596;37.770;2022-11-20T02:58:59;99662.88;;;-0.13;68.84
63096;BME280;49184;55.596;37.770;2022-11-20T03:01:25;99695.22;;;0.04;68.95
63096;BME280;49184;55.596;37.770;2022-11-20T03:03:51;99702.22;;;0.05;68.87
63096;BME280;49184;55.596;37.770;2022-11-20T03:06:20;99662.97;;;-0.19;69.27
63096;BME280;49184;55.596;37.770;2022-11-20T03:08:46;99680.72;;;0.05;68.89
63096;BME280;49184;55.596;37.770;2022-11-20T03:11:12;99641.94;;;-0.34;69.13
63096;BME280;49184;55.596;37.770;2022-11-20T03:13:38;99657.47;;;-0.25;69.04
63096;BME280;49184;55.596;37.770;2022-11-20T03:16:17;99639.00;;;-0.44;69.03
63096;BME280;49184;55.596;37.770;2022-11-20T03:18:44;99742.09;;;0.20;69.15
63096;BME280;49184;55.596;37.770;2022-11-20T03:21:12;99735.28;;;0.06;69.21
63096;BME280;49184;55.596;37.770;2022-11-20T03:23:39;99684.00;;;-0.16;69.06
63096;BME280;49184;55.596;37.770;2022-11-20T03:28:41;99710.38;;;-0.13;68.99
63096;BME280;49184;55.596;37.770;2022-11-20T03:31:13;99681.66;;;-0.36;69.04
63096;BME280;49184;55.596;37.770;2022-11-20T03:33:40;99670.22;;;-0.32;69.28
63096;BME280;49184;55.596;37.770;2022-11-20T03:36:13;99743.13;;;0.19;68.86
63096;BME280;49184;55.596;37.770;2022-11-20T03:38:40;99677.34;;;-0.26;69.03
63096;BME280;49184;55.596;37.770;2022-11-20T03:41:12;99675.22;;;-0.24;69.00
63096;BME280;49184;55.596;37.770;2022-11-20T03:43:39;99682.84;;;-0.09;69.00
63096;BME280;49184;55.596;37.770;2022-11-20T03:46:06;99704.91;;;-0.07;68.56
63096;BME280;49184;55.596;37.770;2022-11-20T03:48:33;99706.19;;;-0.09;68.55
63096;BME280;49184;55.596;37.770;2022-11-20T03:51:17;99636.69;;;-0.53;68.64
63096;BME280;49184;55.596;37.770;2022-11-20T03:53:45;99650.56;;;-0.44;68.37
63096;BME280;49184;55.596;37.770;2022-11-20T03:56:12;99693.09;;;-0.29;68.19
63096;BME280;49184;55.596;37.770;2022-11-20T03:58:40;99648.81;;;-0.50;68.37
63096;BME280;49184;55.596;37.770;2022-11-20T04:01:11;99703.63;;;-0.16;68.55
63096;BME280;49184;55.596;37.770;2022-11-20T04:03:39;99670.66;;;-0.35;68.32
63096;BME280;49184;55.596;37.770;2022-11-20T04:06:14;99754.22;;;0.11;68.31
63096;BME280;49184;55.596;37.770;2022-11-20T04:08:42;99732.84;;;-0.19;68.28
63096;BME280;49184;55.596;37.770;2022-11-20T04:13:35;99777.84;;;0.20;68.25
63096;BME280;49184;55.596;37.770;2022-11-20T04:16:02;99747.09;;;0.05;67.98
63096;BME280;49184;55.596;37.770;2022-11-20T04:18:28;99690.31;;;-0.22;67.88
63096;BME280;49184;55.596;37.770;2022-11-20T04:20:56;99708.16;;;-0.28;68.33
63096;BME280;49184;55.596;37.770;2022-11-20T04:23:23;99710.84;;;-0.28;68.07
63096;BME280;49184;55.596;37.770;2022-11-20T04:25:49;99717.19;;;-0.22;68.34
63096;BME280;49184;55.596;37.770;2022-11-20T04:28:16;99729.09;;;-0.18;67.86
63096;BME280;49184;55.596;37.770;2022-11-20T04:30:42;99687.34;;;-0.44;68.04
63096;BME280;49184;55.596;37.770;2022-11-20T04:33:08;99720.06;;;-0.24;67.53
63096;BME280;49184;55.596;37.770;2022-11-20T04:35:35;99767.09;;;-0.03;67.78
63096;BME280;49184;55.596;37.770;2022-11-20T04:38:01;99749.19;;;-0.09;67.80
63096;BME280;49184;55.596;37.770;2022-11-20T04:40:29;99726.22;;;-0.47;68.51
63096;BME280;49184;55.596;37.770;2022-11-20T04:42:55;99804.59;;;0.15;68.27
63096;BME280;49184;55.596;37.770;2022-11-20T04:45:23;99786.13;;;0.07;67.90
63096;BME280;49184;55.596;37.770;2022-11-20T04:47:49;99746.38;;;-0.14;67.66
63096;BME280;49184;55.596;37.770;2022-11-20T04:50:25;99715.97;;;-0.38;67.75
63096;BME280;49184;55.596;37.770;2022-11-20T04:52:54;99785.44;;;0.23;67.28
63096;BME280;49184;55.596;37.770;2022-11-20T04:55:20;99787.31;;;0.11;66.95
63096;BME280;49184;55.596;37.770;2022-11-20T04:57:49;99755.72;;;-0.17;67.62
63096;BME280;49184;55.596;37.770;2022-11-20T05:00:16;99784.25;;;-0.04;68.05
63096;BME280;49184;55.596;37.770;2022-11-20T05:02:42;99785.88;;;0.09;67.53
63096;BME280;49184;55.596;37.770;2022-11-20T05:05:08;99732.25;;;-0.10;66.83
63096;BME280;49184;55.596;37.770;2022-11-20T05:07:35;99710.38;;;-0.13;67.04
63096;BME280;49184;55.596;37.770;2022-11-20T05:10:01;99828.59;;;0.64;66.20
63096;BME280;49184;55.596;37.770;2022-11-20T05:12:27;99764.63;;;0.19;66.23
63096;BME280;49184;55.596;37.770;2022-11-20T05:14:54;99717.19;;;0.01;66.08
63096;BME280;49184;55.596;37.770;2022-11-20T05:17:20;99730.03;;;-0.01;65.59
63096;BME280;49184;55.596;37.770;2022-11-20T05:19:47;99772.13;;;0.17;65.67
63096;BME280;49184;55.596;37.770;2022-11-20T05:22:14;99753.06;;;-0.05;65.60
63096;BME280;49184;55.596;37.770;2022-11-20T05:24:40;99754.56;;;-0.09;66.25
63096;BME280;49184;55.596;37.770;2022-11-20T05:29:35;99857.94;;;0.65;66.04
63096;BME280;49184;55.596;37.770;2022-11-20T05:32:01;99850.81;;;0.71;65.58
63096;BME280;49184;55.596;37.770;2022-11-20T05:34:27;99814.44;;;0.33;65.93
63096;BME280;49184;55.596;37.770;2022-11-20T05:36:54;99793.03;;;0.15;66.09
63096;BME280;49184;55.596;37.770;2022-11-20T05:39:20;99791.16;;;0.15;65.80
63096;BME280;49184;55.596;37.770;2022-11-20T05:41:46;99833.28;;;0.33;64.93
63096;BME280;49184;55.596;37.770;2022-11-20T05:44:32;99824.81;;;0.30;66.07
63096;BME280;49184;55.596;37.770;2022-11-20T05:46:58;99793.50;;;0.00;65.56
63096;BME280;49184;55.596;37.770;2022-11-20T05:49:25;99826.69;;;0.17;65.52
63096;BME280;49184;55.596;37.770;2022-11-20T05:51:52;99789.50;;;-0.09;65.68
63096;BME280;49184;55.596;37.770;2022-11-20T05:54:19;99862.00;;;0.33;65.46
63096;BME280;49184;55.596;37.770;2022-11-20T05:56:45;99891.03;;;0.66;65.46
63096;BME280;49184;55.596;37.770;2022-11-20T05:59:12;99855.34;;;0.59;64.73
63096;BME280;49184;55.596;37.770;2022-11-20T06:01:38;99852.09;;;0.45;64.50
63096;BME280;49184;55.596;37.770;2022-11-20T06:04:05;99814.88;;;0.18;64.89
63096;BME280;49184;55.596;37.770;2022-11-20T06:06:34;99888.81;;;0.63;64.89
63096;BME280;49184;55.596;37.770;2022-11-20T06:09:00;99882.28;;;0.70;64.66
63096;BME280;49184;55.596;37.770;2022-11-20T06:11:26;99797.22;;;0.22;63.66
63096;BME280;49184;55.596;37.770;2022-11-20T06:13:53;99807.66;;;0.31;63.77
63096;BME280;49184;55.596;37.770;2022-11-20T06:16:19;99797.00;;;0.36;63.42
63096;BME280;49184;55.596;37.770;2022-11-20T06:18:47;99851.97;;;0.52;63.83
63096;BME280;49184;55.596;37.770;2022-11-20T06:21:19;99896.19;;;0.91;63.25
63096;BME280;49184;55.596;37.770;2022-11-20T06:23:46;99900.06;;;0.83;63.17
63096;BME280;49184;55.596;37.770;2022-11-20T06:26:18;99943.34;;;1.05;63.16
63096;BME280;49184;55.596;37.770;2022-11-20T06:28:45;99898.31;;;0.77;62.96
63096;BME280;49184;55.596;37.770;2022-11-20T06:31:13;99939.25;;;1.03;63.57
63096;BME280;49184;55.596;37.770;2022-11-20T06:33:40;99915.03;;;1.03;63.02
63096;BME280;49184;55.596;37.770;2022-11-20T06:36:10;99901.19;;;0.99;62.51
63096;BME280;49184;55.596;37.770;2022-11-20T06:38:38;99889.50;;;1.05;62.27
63096;BME280;49184;55.596;37.770;2022-11-20T06:41:11;99930.44;;;1.31;62.09
63096;BME280;49184;55.596;37.770;2022-11-20T06:43:38;99878.84;;;0.99;62.27
63096;BME280;49184;55.596;37.770;2022-11-20T06:46:05;99852.88;;;0.92;61.96
63096;BME280;49184;55.596;37.770;2022-11-20T06:48:32;99884.78;;;1.12;61.95
63096;BME280;49184;55.596;37.770;2022-11-20T06:50:59;99937.09;;;1.40;62.84
63096;BME280;49184;55.596;37.770;2022-11-20T06:53:25;99885.88;;;1.00;62.54
63096;BME280;49184;55.596;37.770;2022-11-20T06:55:52;99919.78;;;1.24;62.17
63096;BME280;49184;55.596;37.770;2022-11-20T06:58:18;99889.50;;;1.05;62.46
63096;BME280;49184;55.596;37.770;2022-11-20T07:00:46;99883.41;;;1.10;61.66
63096;BME280;49184;55.596;37.770;2022-11-20T07:03:13;99933.94;;;1.43;62.27
63096;BME280;49184;55.596;37.770;2022-11-20T07:05:39;99906.34;;;1.24;61.79
63096;BME280;49184;55.596;37.770;2022-11-20T07:08:06;99951.00;;;1.60;61.42
63096;BME280;49184;55.596;37.770;2022-11-20T07:10:32;99926.06;;;1.41;61.79
63096;BME280;49184;55.596;37.770;2022-11-20T07:12:59;99908.88;;;1.43;61.50
63096;BME280;49184;55.596;37.770;2022-11-20T07:15:25;99872.50;;;1.16;61.47
63096;BME280;49184;55.596;37.770;2022-11-20T07:17:52;99886.09;;;1.10;62.16
63096;BME280;49184;55.596;37.770;2022-11-20T07:20:18;99935.00;;;1.18;62.25
63096;BME280;49184;55.596;37.770;2022-11-20T07:22:55;99934.31;;;1.11;62.59
63096;BME280;49184;55.596;37.770;2022-11-20T07:25:22;99924.59;;;1.22;62.42
63096;BME280;49184;55.596;37.770;2022-11-20T07:27:48;99858.03;;;0.94;62.12
63096;BME280;49184;55.596;37.770;2022-11-20T07:30:16;99915.44;;;1.35;61.49
63096;BME280;49184;55.596;37.770;2022-11-20T07:32:42;99908.16;;;1.35;61.47
63096;BME280;49184;55.596;37.770;2022-11-20T07:35:08;99898.84;;;1.14;61.84
63096;BME280;49184;55.596;37.770;2022-11-20T07:37:35;99843.88;;;0.87;61.50
63096;BME280;49184;55.596;37.770;2022-11-20T07:40:01;99887.94;;;1.21;61.58
63096;BME280;49184;55.596;37.770;2022-11-20T07:42:29;99855.94;;;0.96;61.50
63096;BME280;49184;55.596;37.770;2022-11-20T07:44:55;99942.84;;;1.32;61.67
63096;BME280;49184;55.596;37.770;2022-11-20T07:47:22;99948.09;;;1.38;61.87
63096;BME280;49184;55.596;37.770;2022-11-20T07:49:48;99936.50;;;1.38;62.25
63096;BME280;49184;55.596;37.770;2022-11-20T07:52:14;99933.06;;;1.54;61.35
63096;BME280;49184;55.596;37.770;2022-11-20T07:54:40;99922.22;;;1.37;61.60
63096;BME280;49184;55.596;37.770;2022-11-20T07:57:06;99940.22;;;1.49;61.20
63096;BME280;49184;55.596;37.770;2022-11-20T07:59:33;99970.19;;;1.76;61.07
63096;BME280;49184;55.596;37.770;2022-11-20T08:01:59;99888.50;;;1.35;60.72
63096;BME280;49184;55.596;37.770;2022-11-20T08:04:27;99946.75;;;1.76;60.31
63096;BME280;49184;55.596;37.770;2022-11-20T08:06:54;99970.81;;;1.95;60.24
63096;BME280;49184;55.596;37.770;2022-11-20T08:09:20;99952.34;;;1.75;60.73
63096;BME280;49184;55.596;37.770;2022-11-20T08:11:47;99960.88;;;1.83;60.31
63096;BME280;49184;55.596;37.770;2022-11-20T08:14:33;99933.97;;;1.72;60.05
63096;BME280;49184;55.596;37.770;2022-11-20T08:16:59;99912.78;;;1.63;59.59
63096;BME280;49184;55.596;37.770;2022-11-20T08:19:25;99926.47;;;1.74;59.89
63096;BME280;49184;55.596;37.770;2022-11-20T08:21:51;99999.66;;;2.23;59.94
63096;BME280;49184;55.596;37.770;2022-11-20T08:24:18;99957.78;;;2.03;59.95
63096;BME280;49184;55.596;37.770;2022-11-20T08:26:46;99920.47;;;1.72;59.66
63096;BME280;49184;55.596;37.770;2022-11-20T08:29:12;99902.56;;;1.65;59.21
63096;BME280;49184;55.596;37.770;2022-11-20T08:31:39;99954.25;;;2.03;59.18
63096;BME280;49184;55.596;37.770;2022-11-20T08:34:05;99896.50;;;1.58;59.64
63096;BME280;49184;55.596;37.770;2022-11-20T08:36:33;99918.34;;;1.85;59.56
63096;BME280;49184;55.596;37.770;2022-11-20T08:39:01;99932.03;;;1.96;59.37
63096;BME280;49184;55.596;37.770;2022-11-20T08:41:29;99901.78;;;1.94;58.73
63096;BME280;49184;55.596;37.770;2022-11-20T08:44:03;99933.78;;;2.19;58.30
63096;BME280;49184;55.596;37.770;2022-11-20T08:46:38;99990.56;;;2.57;58.62
63096;BME280;49184;55.596;37.770;2022-11-20T08:49:09;99996.22;;;2.56;58.93
63096;BME280;49184;55.596;37.770;2022-11-20T08:51:35;99956.28;;;1.96;58.70
63096;BME280;49184;55.596;37.770;2022-11-20T08:54:02;99990.44;;;2.19;59.06
63096;BME280;49184;55.596;37.770;2022-11-20T08:56:28;99989.44;;;2.25;58.96
63096;BME280;49184;55.596;37.770;2022-11-20T08:58:55;99973.19;;;2.20;59.15
63096;BME280;49184;55.596;37.770;2022-11-20T09:01:22;100040.66;;;2.65;58.72
63096;BME280;49184;55.596;37.770;2022-11-20T09:03:49;99931.88;;;2.02;58.64
63096;BME280;49184;55.596;37.770;2022-11-20T09:06:19;99979.53;;;2.42;58.30
63096;BME280;49184;55.596;37.770;2022-11-20T09:16:29;99930.22;;;2.01;58.43
63096;BME280;49184;55.596;37.770;2022-11-20T09:18:58;100034.78;;;2.68;58.32
63096;BME280;49184;55.596;37.770;2022-11-20T09:21:24;100029.94;;;2.70;58.86
63096;BME280;49184;55.596;37.770;2022-11-20T09:23:50;100001.78;;;2.49;58.16
63096;BME280;49184;55.596;37.770;2022-11-20T09:26:16;100038.19;;;2.64;58.31
63096;BME280;49184;55.596;37.770;2022-11-20T09:28:43;100048.28;;;2.68;58.59
63096;BME280;49184;55.596;37.770;2022-11-20T09:31:22;99995.09;;;2.23;58.29
63096;BME280;49184;55.596;37.770;2022-11-20T09:33:48;100036.81;;;2.32;59.43
63096;BME280;49184;55.596;37.770;2022-11-20T09:36:15;99965.53;;;2.00;59.27
63096;BME280;49184;55.596;37.770;2022-11-20T09:38:47;100048.34;;;2.45;59.39
63096;BME280;49184;55.596;37.770;2022-11-20T09:41:36;100087.44;;;2.71;59.21
63096;BME280;49184;55.596;37.770;2022-11-20T09:50:23;100022.28;;;2.50;58.64
63096;BME280;49184;55.596;37.770;2022-11-20T09:53:12;100078.34;;;3.05;58.81
63096;BME280;49184;55.596;37.770;2022-11-20T09:55:40;100003.84;;;2.59;58.49
63096;BME280;49184;55.596;37.770;2022-11-20T10:08:07;100037.41;;;2.51;59.39
63096;BME280;49184;55.596;37.770;2022-11-20T10:10:44;100054.97;;;2.66;60.01
63096;BME280;49184;55.596;37.770;2022-11-20T10:19:03;100103.00;;;2.80;61.66
63096;BME280;49184;55.596;37.770;2022-11-20T10:30:16;100025.22;;;2.32;62.50
63096;BME280;49184;55.596;37.770;2022-11-20T10:32:47;99999.69;;;2.11;62.50
63096;BME280;49184;55.596;37.770;2022-11-20T10:35:25;100115.31;;;2.88;62.62
63096;BME280;49184;55.596;37.770;2022-11-20T10:37:59;100014.16;;;2.33;62.02
63096;BME280;49184;55.596;37.770;2022-11-20T10:40:32;100064.28;;;2.29;62.84
63096;BME280;49184;55.596;37.770;2022-11-20T10:43:26;100013.59;;;1.91;63.37
63096;BME280;49184;55.596;37.770;2022-11-20T10:48:49;100070.00;;;1.93;64.37
63096;BME280;49184;55.596;37.770;2022-11-20T10:51:18;100126.13;;;2.19;64.81
63096;BME280;49184;55.596;37.770;2022-11-20T10:56:59;100073.53;;;2.22;63.59
63096;BME280;49184;55.596;37.770;2022-11-20T10:59:54;100035.75;;;1.93;63.93
63096;BME280;49184;55.596;37.770;2022-11-20T11:12:22;100147.19;;;2.34;63.11
63096;BME280;49184;55.596;37.770;2022-11-20T11:14:52;100114.56;;;2.35;62.50
63096;BME280;49184;55.596;37.770;2022-11-20T11:17:27;100069.81;;;2.11;62.57
63096;BME280;49184;55.596;37.770;2022-11-20T11:20:26;100149.03;;;2.45;62.33
63096;BME280;49184;55.596;37.770;2022-11-20T11:23:34;100145.22;;;2.29;63.09
63096;BME280;49184;55.596;37.770;2022-11-20T11:26:06;100061.56;;;1.65;62.97
63096;BME280;49184;55.596;37.770;2022-11-20T11:29:04;100090.84;;;1.97;62.54
63096;BME280;49184;55.596;37.770;2022-11-20T11:35:05;100094.22;;;2.04;62.97
63096;BME280;49184;55.596;37.770;2022-11-20T11:37:41;100093.78;;;1.96;63.01
63096;BME280;49184;55.596;37.770;2022-11-20T11:40:10;100064.41;;;1.82;62.49
63096;BME280;49184;55.596;37.770;2022-11-20T11:42:43;100029.38;;;1.47;63.00
63096;BME280;49184;55.596;37.770;2022-11-20T11:46:02;100032.56;;;1.56;63.15
63096;BME280;49184;55.596;37.770;2022-11-20T11:49:22;100082.91;;;1.79;62.49
63096;BME280;49184;55.596;37.770;2022-11-20T11:52:18;100033.97;;;1.47;62.33
63096;BME280;49184;55.596;37.770;2022-11-20T11:54:54;100095.78;;;1.65;63.09
63096;BME280;49184;55.596;37.770;2022-11-20T11:57:49;100101.78;;;1.55;63.13
63096;BME280;49184;55.596;37.770;2022-11-20T12:00:45;100062.53;;;1.24;63.42
63096;BME280;49184;55.596;37.770;2022-11-20T12:03:39;100166.13;;;1.87;62.83
63096;BME280;49184;55.596;37.770;2022-11-20T12:06:15;100123.56;;;1.54;63.36
63096;BME280;49184;55.596;37.770;2022-11-20T12:08:56;100156.84;;;1.71;63.13
63096;BME280;49184;55.596;37.770;2022-11-20T12:11:53;100054.66;;;0.99;62.69
63096;BME280;49184;55.596;37.770;2022-11-20T12:17:23;100078.19;;;1.15;62.31
63096;BME280;49184;55.596;37.770;2022-11-20T12:19:50;100088.50;;;1.18;62.95
63096;BME280;49184;55.596;37.770;2022-11-20T12:22:48;100113.50;;;1.37;62.84
63096;BME280;49184;55.596;37.770;2022-11-20T12:34:16;100050.22;;;1.05;62.32
63096;BME280;49184;55.596;37.770;2022-11-20T12:36:56;100150.41;;;1.72;61.52
63096;BME280;49184;55.596;37.770;2022-11-20T12:39:49;100160.72;;;1.75;61.95
63096;BME280;49184;55.596;37.770;2022-11-20T13:07:14;100113.97;;;1.46;60.97
63096;BME280;49184;55.596;37.770;2022-11-20T13:14:03;100174.69;;;1.84;59.85
63096;BME280;49184;55.596;37.770;2022-11-20T13:16:52;100176.19;;;2.03;61.38
63096;BME280;49184;55.596;37.770;2022-11-20T13:20:13;100077.16;;;1.52;62.36
63096;BME280;49184;55.596;37.770;2022-11-20T13:25:35;100144.06;;;2.14;60.34
63096;BME280;49184;55.596;37.770;2022-11-20T13:28:27;100186.19;;;2.55;60.34
63096;BME280;49184;55.596;37.770;2022-11-20T13:31:09;100121.56;;;1.96;59.09
63096;BME280;49184;55.596;37.770;2022-11-20T13:34:04;100147.81;;;2.13;59.10
63096;BME280;49184;55.596;37.770;2022-11-20T13:36:50;100082.53;;;1.87;59.85
63096;BME280;49184;55.596;37.770;2022-11-20T13:43:26;100199.25;;;2.87;57.68
63096;BME280;49184;55.596;37.770;2022-11-20T13:45:57;100120.06;;;2.41;57.14
63096;BME280;49184;55.596;37.770;2022-11-20T13:48:29;100167.88;;;2.69;58.03
63096;BME280;49184;55.596;37.770;2022-11-20T14:02:17;100128.69;;;2.26;57.27
63096;BME280;49184;55.596;37.770;2022-11-20T14:04:57;100090.88;;;1.74;57.50
63096;BME280;49184;55.596;37.770;2022-11-20T14:07:37;100081.84;;;1.68;58.25
63096;BME280;49184;55.596;37.770;2022-11-20T14:10:45;100111.22;;;2.05;57.33
63096;BME280;49184;55.596;37.770;2022-11-20T14:13:49;100101.03;;;1.95;57.65
63096;BME280;49184;55.596;37.770;2022-11-20T14:16:42;100182.50;;;2.21;56.48
63096;BME280;49184;55.596;37.770;2022-11-20T14:19:32;100108.09;;;1.84;56.92
63096;BME280;49184;55.596;37.770;2022-11-20T14:26:24;100226.66;;;2.78;57.20
63096;BME280;49184;55.596;37.770;2022-11-20T14:29:05;100118.03;;;2.19;57.26
63096;BME280;49184;55.596;37.770;2022-11-20T14:31:38;100105.34;;;2.20;56.50
63096;BME280;49184;55.596;37.770;2022-11-20T14:34:28;100226.84;;;2.89;56.23
63096;BME280;49184;55.596;37.770;2022-11-20T14:37:19;100109.13;;;1.95;57.49
63096;BME280;49184;55.596;37.770;2022-11-20T14:39:52;100197.88;;;2.32;56.96
63096;BME280;49184;55.596;37.770;2022-11-20T14:42:33;100125.91;;;1.97;56.19
63096;BME280;49184;55.596;37.770;2022-11-20T14:45:11;100165.97;;;2.17;57.12
63096;BME280;49184;55.596;37.770;2022-11-20T14:48:00;100143.72;;;2.10;56.47
63096;BME280;49184;55.596;37.770;2022-11-20T14:50:47;100266.16;;;2.85;55.61
63096;BME280;49184;55.596;37.770;2022-11-20T14:53:49;100211.59;;;2.42;55.92
63096;BME280;49184;55.596;37.770;2022-11-20T14:56:31;100230.44;;;2.54;56.08
63096;BME280;49184;55.596;37.770;2022-11-20T14:59:00;100258.13;;;2.73;56.58
63096;BME280;49184;55.596;37.770;2022-11-20T15:01:33;100221.28;;;2.67;56.81
63096;BME280;49184;55.596;37.770;2022-11-20T15:04:06;100128.81;;;2.07;55.34
63096;BME280;49184;55.596;37.770;2022-11-20T15:07:03;100131.66;;;1.89;54.77
63096;BME280;49184;55.596;37.770;2022-11-20T15:09:30;100228.84;;;2.29;56.09
63096;BME280;49184;55.596;37.770;2022-11-20T15:12:15;100251.22;;;2.65;55.82
63096;BME280;49184;55.596;37.770;2022-11-20T15:15:36;100150.38;;;2.19;55.22
63096;BME280;49184;55.596;37.770;2022-11-20T15:18:56;100179.88;;;2.49;54.89
63096;BME280;49184;55.596;37.770;2022-11-20T15:22:02;100131.72;;;2.18;54.81
63096;BME280;49184;55.596;37.770;2022-11-20T15:27:58;100183.53;;;2.43;59.87
63096;BME280;49184;55.596;37.770;2022-11-20T15:30:35;100246.84;;;2.76;60.33
63096;BME280;49184;55.596;37.770;2022-11-20T15:33:13;100186.50;;;2.30;60.78
63096;BME280;49184;55.596;37.770;2022-11-20T15:35:56;100173.84;;;2.07;61.37
63096;BME280;49184;55.596;37.770;2022-11-20T15:38:43;100121.81;;;1.83;61.29
63096;BME280;49184;55.596;37.770;2022-11-20T15:41:52;100193.66;;;2.13;61.63